Item Display Status Humidity-temperature Sensor

Elevation Above Sea Level: 3 m

 

Deployed Sensor

  • Serial Number: 20066137
  • NDBC Property Number: 40484
  • Start Date: 11/19/2018 (13:28:49 Z)
  • End Date: Currently Active
Relative Humidity [%]     6 entries per hour
Showing data from 11/19/2019 (15:00:00 Z) to 11/18/2019 (00:00:01 Z)
Previous Next [ Day | 3-Days | 7-Days ]
First Last
Prev [ Day | 3-Days | 7-Days ] Next
First Last

Start Time:     :
End Time:     :     
Time (in GMT) :00 :50 :40 :30 :20 :10
Previous Next [ Day | 3-Days | 7-Days ]
First Last
Prev [ Day | 3-Days | 7-Days ] Next
First Last


123 => good data
MM => data is determined as missing
-- => data not received/configured
Back to Top Back to Top
11/19/2019 15:00 to 14:10 71.28 69.45 68.00 64.88 67.06 68.02
11/19/2019 14:00 to 13:10 68.87 68.02 67.11 67.19 67.79 68.19
11/19/2019 13:00 to 12:10 68.83 68.46 66.34 69.39 68.23 67.25
11/19/2019 12:00 to 11:10 67.31 67.31 70.49 69.75 69.48 69.99
11/19/2019 11:00 to 10:10 70.56 70.02 69.16 69.06 70.26 69.79
11/19/2019 10:00 to 9:10 70.31 70.91 69.16 69.04 69.33 69.97
11/19/2019 09:00 to 8:10 70.99 69.79 69.87 71.97 70.93 71.05
11/19/2019 08:00 to 7:10 71.30 69.68 71.03 69.89 71.62 69.89
11/19/2019 07:00 to 6:10 71.16 70.62 70.02 71.95 69.79 71.24
11/19/2019 06:00 to 5:10 69.60 70.45 70.83 69.68 70.83 69.02
11/19/2019 05:00 to 4:10 69.25 67.29 67.37 69.31 69.91 69.62
11/19/2019 04:00 to 3:10 69.14 69.12 67.58 68.75 67.54 68.06
11/19/2019 03:00 to 2:10 67.37 67.60 70.06 68.41 70.02 68.85
11/19/2019 02:00 to 1:10 70.70 70.62 70.41 71.12 69.89 67.94
11/19/2019 01:00 to 0:10 67.00 68.69 68.35 67.71 67.00 69.00
11/19/2019 00:00 to 23:10 66.48 69.60 69.72 68.69 64.40 67.46
11/18/2019 23:00 to 22:10 65.65 70.45 71.35 71.70 68.08 68.29
11/18/2019 22:00 to 21:10 71.10 69.04 70.18 70.64 72.28 73.86
11/18/2019 21:00 to 20:10 74.73 74.40 75.32 76.33 74.57 71.76
11/18/2019 20:00 to 19:10 70.53 70.83 70.85 70.56 68.93 70.78
11/18/2019 19:00 to 18:10 70.53 70.18 69.62 70.58 69.79 68.69
11/18/2019 18:00 to 17:10 69.43 68.21 69.02 68.91 68.52 67.94
11/18/2019 17:00 to 16:10 68.14 67.75 68.23 67.92 67.37 69.43
11/18/2019 16:00 to 15:10 67.50 69.64 70.83 69.56 69.74 71.91
11/18/2019 15:00 to 14:10 72.88 73.22 69.83 73.44 75.46 73.20
11/18/2019 14:00 to 13:10 75.21 77.81 71.35 72.86 72.01 69.23
11/18/2019 13:00 to 12:10 69.70 68.98 68.71 68.16 68.71 68.81
11/18/2019 12:00 to 11:10 68.12 67.23 68.33 70.72 69.97 70.10
11/18/2019 11:00 to 10:10 68.62 68.89 70.04 71.70 70.87 72.30
11/18/2019 10:00 to 9:10 72.51 67.63 71.47 73.94 72.03 70.51
11/18/2019 09:00 to 8:10 70.80 70.76 71.47 72.55 72.72 71.12
11/18/2019 08:00 to 7:10 70.95 70.78 69.47 68.71 69.04 70.39
11/18/2019 07:00 to 6:10 69.39 68.33 68.02 69.25 70.93 69.18
11/18/2019 06:00 to 5:10 70.45 71.76 78.08 76.52 75.86 74.42
11/18/2019 05:00 to 4:10 75.42 75.55 78.41 79.51 78.08 74.17
11/18/2019 04:00 to 3:10 75.03 75.59 72.16 73.67 75.07 75.21
11/18/2019 03:00 to 2:10 75.21 73.92 76.17 76.85 75.29 67.92
11/18/2019 02:00 to 1:10 69.35 73.51 72.70 68.44 70.91 72.20
11/18/2019 01:00 to 0:10 77.10 74.75 73.88 73.59 76.09 75.21

 

 

 

Air Temperature [°C]     6 entries per hour
Showing data from 11/19/2019 (15:00:00 Z) to 11/18/2019 (00:00:01 Z)
Previous Next [ Day | 3-Days | 7-Days ]
First Last
Prev [ Day | 3-Days | 7-Days ] Next
First Last

Start Time:     :
End Time:     :     
Time (in GMT) :00 :50 :40 :30 :20 :10
Previous Next [ Day | 3-Days | 7-Days ]
First Last
Prev [ Day | 3-Days | 7-Days ] Next
First Last


123 => good data
MM => data is determined as missing
-- => data not received/configured
Back to Top Back to Top
11/19/2019 15:00 to 14:10 21.70 21.63 21.72 21.57 21.70 21.60
11/19/2019 14:00 to 13:10 21.49 21.38 21.50 21.41 21.55 21.45
11/19/2019 13:00 to 12:10 21.29 21.47 21.31 21.36 21.27 21.26
11/19/2019 12:00 to 11:10 21.21 21.22 21.19 21.20 21.21 21.27
11/19/2019 11:00 to 10:10 21.28 21.30 21.27 21.25 21.25 21.30
11/19/2019 10:00 to 9:10 21.33 21.35 21.33 21.41 21.27 21.30
11/19/2019 09:00 to 8:10 21.37 21.32 21.25 21.45 21.31 21.39
11/19/2019 08:00 to 7:10 21.45 21.43 21.40 21.25 21.37 21.41
11/19/2019 07:00 to 6:10 21.45 21.40 21.41 21.63 21.55 21.59
11/19/2019 06:00 to 5:10 21.73 21.67 21.64 21.67 21.86 21.78
11/19/2019 05:00 to 4:10 21.82 21.67 21.74 21.95 22.07 21.98
11/19/2019 04:00 to 3:10 21.91 21.88 21.90 21.95 21.90 21.89
11/19/2019 03:00 to 2:10 21.85 21.94 22.02 21.98 21.78 21.69
11/19/2019 02:00 to 1:10 21.75 21.80 21.74 21.79 21.88 21.88
11/19/2019 01:00 to 0:10 21.92 21.98 21.93 22.03 21.96 22.04
11/19/2019 00:00 to 23:10 22.08 22.16 22.16 22.01 22.19 22.26
11/18/2019 23:00 to 22:10 22.08 21.91 21.89 21.91 21.87 21.97
11/18/2019 22:00 to 21:10 21.98 21.89 21.82 21.79 21.75 21.54
11/18/2019 21:00 to 20:10 21.51 21.46 21.32 21.28 21.50 21.47
11/18/2019 20:00 to 19:10 21.51 21.69 21.79 21.86 21.80 22.02
11/18/2019 19:00 to 18:10 22.01 21.97 21.75 21.72 21.75 21.74
11/18/2019 18:00 to 17:10 21.79 21.79 21.69 21.69 21.77 21.70
11/18/2019 17:00 to 16:10 21.70 21.61 21.46 21.73 21.67 21.72
11/18/2019 16:00 to 15:10 21.59 21.58 21.73 21.63 21.67 21.52
11/18/2019 15:00 to 14:10 21.72 21.69 21.76 21.59 21.63 21.41
11/18/2019 14:00 to 13:10 21.32 21.37 21.79 21.54 21.59 21.66
11/18/2019 13:00 to 12:10 21.60 21.66 21.55 21.51 21.57 21.58
11/18/2019 12:00 to 11:10 21.55 21.51 21.59 21.63 21.55 21.45
11/18/2019 11:00 to 10:10 21.29 21.38 21.36 21.46 21.47 21.32
11/18/2019 10:00 to 9:10 21.28 21.39 21.40 21.47 21.22 21.49
11/18/2019 09:00 to 8:10 21.45 21.51 21.43 21.47 21.35 21.51
11/18/2019 08:00 to 7:10 21.38 21.57 21.43 21.46 21.43 21.52
11/18/2019 07:00 to 6:10 21.51 21.44 21.39 21.57 21.54 21.48
11/18/2019 06:00 to 5:10 21.53 21.61 21.35 21.30 21.32 21.15
11/18/2019 05:00 to 4:10 21.28 21.08 21.00 21.19 21.42 21.59
11/18/2019 04:00 to 3:10 21.49 21.70 21.76 21.53 21.49 21.30
11/18/2019 03:00 to 2:10 21.27 21.22 21.22 21.34 21.66 21.67
11/18/2019 02:00 to 1:10 21.62 21.61 21.62 21.60 21.45 21.48
11/18/2019 01:00 to 0:10 21.50 21.28 21.46 21.49 21.41 21.32